Time;durP1;ratioP1;P1;durP2;ratioP2;P2;SDS_P1;SDS_P2;PMS_P1;PMS_P2;Temp;Humidity;BMP_temperature;BMP_pressure;BME280_temperature;BME280_humidity;BME280_pressure;Samples;Min_cycle;Max_cycle;Signal;HPM_P1;HPM_P2
2022/08/20 00:00:55;;;;;;;2.67;1.17;;;22.40;85.30;;;;;;6296422;28;20052;-79
2022/08/20 00:03:57;;;;;;;2.95;0.60;;;22.40;85.50;;;;;;6308014;28;20048;-78
2022/08/20 00:07:00;;;;;;;0.88;0.50;;;22.40;86.00;;;;;;6299954;28;20049;-80
2022/08/20 00:10:02;;;;;;;2.83;0.50;;;22.30;86.30;;;;;;6294676;28;20040;-80
2022/08/20 00:13:06;;;;;;;1.95;0.43;;;22.30;86.60;;;;;;6298396;28;20411;-80
2022/08/20 00:16:08;;;;;;;1.52;0.55;;;22.40;86.90;;;;;;6298729;28;20048;-79
2022/08/20 00:19:10;;;;;;;1.17;0.55;;;22.40;87.00;;;;;;6299424;28;20040;-77
2022/08/20 00:22:13;;;;;;;3.72;0.73;;;22.40;87.00;;;;;;6299677;28;20071;-79
2022/08/20 00:25:15;;;;;;;3.08;0.70;;;22.50;87.00;;;;;;6299135;28;20230;-78
2022/08/20 00:28:18;;;;;;;1.15;0.60;;;22.50;87.20;;;;;;6303514;28;20060;-78
2022/08/20 00:31:22;;;;;;;2.42;0.47;;;22.50;87.20;;;;;;6303466;28;20124;-79
2022/08/20 00:34:24;;;;;;;1.98;0.60;;;22.50;87.20;;;;;;6303959;28;20044;-79
2022/08/20 00:37:27;;;;;;;0.65;0.55;;;22.50;87.40;;;;;;6303096;28;20053;-79
2022/08/20 00:40:33;;;;;;;1.38;0.80;;;22.50;87.70;;;;;;6304991;28;20041;-80
2022/08/20 00:43:37;;;;;;;2.33;0.60;;;22.50;88.00;;;;;;6303886;28;20055;-79
2022/08/20 00:46:40;;;;;;;2.08;0.95;;;22.50;88.00;;;;;;6304037;28;20040;-79
2022/08/20 00:49:44;;;;;;;1.15;0.73;;;22.60;88.00;;;;;;6303839;28;20044;-79
2022/08/20 00:52:51;;;;;;;1.48;0.80;;;22.60;88.10;;;;;;6304223;28;20052;-79
2022/08/20 00:55:52;;;;;;;4.22;0.93;;;22.60;88.00;;;;;;6299986;28;20052;-79
2022/08/20 00:58:54;;;;;;;2.08;0.60;;;22.60;88.00;;;;;;6297054;28;20450;-77
2022/08/20 01:01:57;;;;;;;0.90;0.60;;;22.60;88.20;;;;;;6302556;28;20040;-77
2022/08/20 01:04:59;;;;;;;0.93;0.70;;;22.60;88.50;;;;;;6302626;28;20063;-78
2022/08/20 01:08:02;;;;;;;5.22;1.13;;;22.50;88.60;;;;;;6302347;28;20048;-79
2022/08/20 01:11:08;;;;;;;2.33;0.43;;;22.60;88.80;;;;;;6302741;28;20047;-80
2022/08/20 01:14:23;;;;;;;1.48;0.63;;;22.60;88.80;;;;;;6304940;28;20120;-80
2022/08/20 01:17:28;;;;;;;1.38;0.75;;;22.70;88.70;;;;;;6302457;28;20064;-79
2022/08/20 01:20:34;;;;;;;1.95;0.60;;;22.70;88.50;;;;;;6303112;28;20044;-79
2022/08/20 01:23:42;;;;;;;1.35;0.70;;;22.70;88.40;;;;;;6300006;28;20051;-79
2022/08/20 01:26:47;;;;;;;1.50;0.98;;;22.70;88.40;;;;;;6302569;28;20049;-80
2022/08/20 01:29:49;;;;;;;2.28;0.63;;;22.80;88.50;;;;;;6302653;28;20048;-79
2022/08/20 01:32:51;;;;;;;1.90;0.98;;;22.80;88.60;;;;;;6301581;28;20479;-79
2022/08/20 01:35:53;;;;;;;1.90;0.95;;;22.70;88.60;;;;;;6303004;28;20474;-79
2022/08/20 01:38:55;;;;;;;1.50;0.98;;;22.80;88.60;;;;;;6301762;28;20043;-80
2022/08/20 01:42:07;;;;;;;4.13;1.17;;;22.80;88.60;;;;;;6302199;28;20059;-78
2022/08/20 01:45:09;;;;;;;2.72;0.85;;;22.80;88.50;;;;;;6301668;28;20048;-79
2022/08/20 01:48:11;;;;;;;2.28;1.00;;;22.90;88.40;;;;;;6302505;28;20052;-80
2022/08/20 01:51:17;;;;;;;1.00;0.55;;;23.00;88.30;;;;;;6300295;28;20423;-80
2022/08/20 01:54:19;;;;;;;2.03;0.90;;;23.00;88.80;;;;;;6302466;28;20048;-78
2022/08/20 01:57:28;;;;;;;2.33;0.98;;;23.00;88.20;;;;;;6299246;28;20052;-79
2022/08/20 02:00:31;;;;;;;1.77;1.02;;;23.00;88.10;;;;;;6301400;28;20047;-79
2022/08/20 02:03:33;;;;;;;1.55;0.90;;;23.00;88.10;;;;;;6301982;28;20063;-79
2022/08/20 02:06:39;;;;;;;2.17;1.00;;;23.00;88.10;;;;;;6300888;28;20046;-79
2022/08/20 02:09:41;;;;;;;1.70;0.80;;;23.00;88.20;;;;;;6300254;28;20045;-78
2022/08/20 02:12:45;;;;;;;2.20;1.00;;;23.00;88.30;;;;;;6303146;28;20534;-79
2022/08/20 02:15:46;;;;;;;1.45;1.05;;;23.00;88.40;;;;;;6299632;28;20108;-80
2022/08/20 02:18:53;;;;;;;1.60;1.13;;;23.00;88.50;;;;;;6301781;28;20522;-78
2022/08/20 02:21:58;;;;;;;2.70;1.23;;;23.00;88.60;;;;;;6300229;28;20048;-79
2022/08/20 02:25:00;;;;;;;2.15;1.20;;;23.00;88.70;;;;;;6277324;28;20053;-79
2022/08/20 02:28:06;;;;;;;6.38;1.05;;;23.00;89.00;;;;;;6278004;28;20053;-78
2022/08/20 02:31:07;;;;;;;1.65;1.15;;;22.90;89.00;;;;;;6291579;28;20075;-80
2022/08/20 02:34:10;;;;;;;2.42;1.30;;;23.00;89.00;;;;;;6299207;28;20048;-80
2022/08/20 02:37:15;;;;;;;1.85;1.23;;;23.00;89.10;;;;;;6300097;28;20059;-79
2022/08/20 02:40:20;;;;;;;4.60;1.65;;;23.00;89.20;;;;;;6301854;28;20044;-79
2022/08/20 02:43:23;;;;;;;2.95;1.60;;;23.00;89.20;;;;;;6299384;28;20052;-80
2022/08/20 02:46:27;;;;;;;3.08;1.33;;;23.00;89.20;;;;;;6301628;28;20466;-79
2022/08/20 02:49:29;;;;;;;5.40;1.58;;;23.00;89.40;;;;;;6301011;28;20040;-78
2022/08/20 02:52:30;;;;;;;4.30;1.25;;;23.00;89.50;;;;;;6300906;28;20519;-80
2022/08/20 02:55:32;;;;;;;5.40;1.58;;;22.90;89.60;;;;;;6300469;28;20051;-80
2022/08/20 02:58:36;;;;;;;4.40;1.50;;;22.90;89.90;;;;;;6295350;28;20041;-80
2022/08/20 03:01:38;;;;;;;4.18;2.20;;;22.90;90.00;;;;;;6300838;28;20040;-79
2022/08/20 03:04:40;;;;;;;2.60;1.70;;;22.80;90.10;;;;;;6301886;28;20419;-80
2022/08/20 03:07:43;;;;;;;3.20;1.70;;;22.90;90.10;;;;;;6302456;28;20051;-79
2022/08/20 03:10:47;;;;;;;5.43;1.83;;;22.80;90.20;;;;;;6301472;28;20051;-80
2022/08/20 03:13:50;;;;;;;2.67;1.30;;;22.80;90.30;;;;;;6301177;28;20412;-80
2022/08/20 03:16:52;;;;;;;3.28;1.65;;;22.80;90.40;;;;;;6300924;28;20044;-79
2022/08/20 03:19:54;;;;;;;2.83;1.58;;;22.80;90.40;;;;;;6298597;28;20037;-79
2022/08/20 03:22:56;;;;;;;4.30;2.00;;;22.70;90.40;;;;;;6299423;28;20055;-80
2022/08/20 03:25:58;;;;;;;9.27;2.08;;;22.70;90.60;;;;;;6301185;28;20051;-77
2022/08/20 03:29:01;;;;;;;3.53;2.22;;;22.70;90.60;;;;;;6298545;28;20047;-80
2022/08/20 03:32:03;;;;;;;3.55;2.25;;;22.70;90.70;;;;;;6300258;28;20045;-79
2022/08/20 03:35:08;;;;;;;3.13;1.95;;;22.60;90.80;;;;;;6301339;28;20051;-79
2022/08/20 03:38:12;;;;;;;2.63;1.80;;;22.60;90.90;;;;;;6300660;28;20051;-80
2022/08/20 03:41:14;;;;;;;9.75;2.00;;;22.60;90.90;;;;;;6290871;28;20048;-80
2022/08/20 03:44:17;;;;;;;7.90;2.80;;;22.60;90.90;;;;;;6276370;28;20049;-80
2022/08/20 03:47:19;;;;;;;3.75;1.80;;;22.60;91.00;;;;;;6275717;28;20055;-79
2022/08/20 03:50:25;;;;;;;7.30;2.08;;;22.60;91.00;;;;;;6276219;28;20048;-80
2022/08/20 03:53:30;;;;;;;2.60;1.73;;;22.60;91.10;;;;;;6276276;28;20041;-80
2022/08/20 03:56:32;;;;;;;4.55;2.17;;;22.50;91.10;;;;;;6277452;28;20045;-80
2022/08/20 03:59:35;;;;;;;2.55;1.73;;;22.50;91.20;;;;;;6285398;28;20032;-78
2022/08/20 04:02:37;;;;;;;5.45;2.10;;;22.50;91.30;;;;;;6301521;28;20534;-80
2022/08/20 04:05:40;;;;;;;3.28;2.17;;;22.50;91.30;;;;;;6302982;28;20049;-80
2022/08/20 04:08:41;;;;;;;2.28;1.65;;;22.50;91.30;;;;;;6300719;28;20040;-80
2022/08/20 04:11:43;;;;;;;2.88;2.03;;;22.60;91.20;;;;;;6303158;28;20143;-80
2022/08/20 04:14:46;;;;;;;3.03;2.22;;;22.60;91.10;;;;;;6303657;28;20393;-80
2022/08/20 04:17:49;;;;;;;2.83;2.08;;;22.60;91.10;;;;;;6310200;28;20048;-77
2022/08/20 04:20:53;;;;;;;4.47;1.48;;;22.60;91.20;;;;;;6296979;28;20095;-80
2022/08/20 04:23:55;;;;;;;3.95;2.42;;;22.60;91.20;;;;;;6299668;28;20537;-79
2022/08/20 04:26:57;;;;;;;3.10;2.20;;;22.60;91.30;;;;;;6295998;28;20083;-78
2022/08/20 04:30:02;;;;;;;4.30;2.83;;;22.60;91.20;;;;;;6289445;28;20078;-79
2022/08/20 04:33:04;;;;;;;3.58;2.13;;;22.60;91.20;;;;;;6298611;28;20056;-80
2022/08/20 04:36:06;;;;;;;4.10;1.77;;;22.60;91.20;;;;;;6299158;28;20048;-79
2022/08/20 04:39:08;;;;;;;3.55;2.38;;;22.60;91.30;;;;;;6297699;28;20049;-79
2022/08/20 04:42:09;;;;;;;3.00;2.00;;;22.60;91.30;;;;;;6299774;28;20055;-79
2022/08/20 04:45:12;;;;;;;2.95;2.13;;;22.50;91.40;;;;;;6298663;28;20051;-79
2022/08/20 04:48:14;;;;;;;6.07;2.47;;;22.50;91.40;;;;;;6298594;28;20055;-80
2022/08/20 04:51:16;;;;;;;2.72;1.77;;;22.50;91.50;;;;;;6296277;28;20063;-79
2022/08/20 04:54:18;;;;;;;3.38;2.10;;;22.50;91.50;;;;;;6298680;28;20052;-79
2022/08/20 04:57:19;;;;;;;5.35;2.08;;;22.50;91.60;;;;;;6298367;28;20048;-80
2022/08/20 05:00:23;;;;;;;3.17;2.25;;;22.50;91.70;;;;;;6288011;28;20045;-80
2022/08/20 05:03:26;;;;;;;3.25;2.25;;;22.40;91.70;;;;;;6297003;28;20055;-79
2022/08/20 05:06:29;;;;;;;3.92;2.78;;;22.30;91.90;;;;;;6298843;28;20396;-79
2022/08/20 05:09:31;;;;;;;3.42;2.28;;;22.30;92.10;;;;;;6297355;28;20036;-80
2022/08/20 05:12:33;;;;;;;3.47;2.40;;;22.20;92.20;;;;;;6298554;28;20044;-80
2022/08/20 05:15:37;;;;;;;5.07;2.20;;;22.20;92.30;;;;;;6304773;28;20060;-79
2022/08/20 05:18:39;;;;;;;4.03;2.42;;;22.10;92.40;;;;;;6303427;28;20055;-79
2022/08/20 05:21:41;;;;;;;8.80;2.33;;;22.20;92.50;;;;;;6303649;28;20434;-79
2022/08/20 05:24:43;;;;;;;2.88;2.50;;;22.20;92.60;;;;;;6304329;28;20048;-80
2022/08/20 05:27:44;;;;;;;3.35;2.10;;;22.30;92.50;;;;;;6302630;28;20045;-79
2022/08/20 05:30:49;;;;;;;7.85;2.22;;;22.40;92.20;;;;;;6302783;28;20119;-81
2022/08/20 05:33:51;;;;;;;4.97;2.92;;;22.50;92.00;;;;;;6303395;28;20040;-78
2022/08/20 05:36:52;;;;;;;3.50;1.90;;;22.50;92.00;;;;;;6300815;28;20052;-80
2022/08/20 05:39:54;;;;;;;3.65;2.10;;;22.60;92.00;;;;;;6300321;28;20515;-79
2022/08/20 05:42:56;;;;;;;6.63;2.70;;;22.70;91.90;;;;;;6302643;28;20538;-78
2022/08/20 05:46:00;;;;;;;2.83;2.20;;;22.80;91.70;;;;;;6302066;28;20048;-79
2022/08/20 05:49:01;;;;;;;2.95;2.28;;;22.70;91.50;;;;;;6301449;28;20235;-80
2022/08/20 05:52:04;;;;;;;5.97;2.30;;;22.80;91.60;;;;;;6301863;28;20056;-76
2022/08/20 05:55:08;;;;;;;2.90;1.95;;;22.90;91.40;;;;;;6301059;28;20055;-81
2022/08/20 05:58:17;;;;;;;2.60;2.03;;;23.20;91.10;;;;;;6300835;28;20523;-81
2022/08/20 06:01:20;;;;;;;4.75;2.35;;;23.70;90.50;;;;;;6301656;28;20090;-79
2022/08/20 06:04:24;;;;;;;4.72;2.53;;;24.30;88.10;;;;;;6298966;28;20056;-81
2022/08/20 06:07:25;;;;;;;3.40;2.17;;;24.70;86.30;;;;;;6301968;28;20057;-81
2022/08/20 06:10:27;;;;;;;8.82;3.42;;;24.90;84.50;;;;;;6302100;28;20049;-79
2022/08/20 06:13:29;;;;;;;4.13;2.25;;;25.00;84.10;;;;;;6302593;28;20040;-79
2022/08/20 06:16:32;;;;;;;6.13;1.80;;;25.00;83.40;;;;;;6302170;28;20135;-80
2022/08/20 06:19:34;;;;;;;2.55;1.80;;;25.00;83.60;;;;;;6302489;28;20044;-79
2022/08/20 06:22:36;;;;;;;4.93;2.17;;;24.80;83.60;;;;;;6302734;28;20049;-80
2022/08/20 06:25:38;;;;;;;3.42;2.35;;;24.70;83.80;;;;;;6301384;28;20045;-80
2022/08/20 06:28:40;;;;;;;4.10;2.08;;;24.60;84.20;;;;;;6303202;28;20067;-80
2022/08/20 06:31:44;;;;;;;2.22;1.70;;;24.70;84.20;;;;;;6302707;28;20048;-80
2022/08/20 06:34:46;;;;;;;4.97;2.63;;;24.60;84.30;;;;;;6303095;28;20048;-80
2022/08/20 06:37:49;;;;;;;2.33;1.58;;;24.40;84.80;;;;;;6302297;28;20491;-78
2022/08/20 06:40:50;;;;;;;3.03;1.90;;;24.30;85.40;;;;;;6303007;28;20049;-80
2022/08/20 06:43:52;;;;;;;3.92;1.77;;;24.50;85.50;;;;;;6302631;28;20048;-80
2022/08/20 06:47:00;;;;;;;4.22;1.75;;;24.80;84.80;;;;;;6302845;28;20076;-81
2022/08/20 06:50:02;;;;;;;2.47;1.55;;;25.40;83.10;;;;;;6302796;28;20047;-80
2022/08/20 06:53:03;;;;;;;1.85;1.25;;;26.10;79.70;;;;;;6302212;28;20055;-81
2022/08/20 06:56:05;;;;;;;2.55;1.52;;;26.20;78.60;;;;;;6303566;28;20049;-80
2022/08/20 06:59:07;;;;;;;2.60;2.00;;;26.20;78.40;;;;;;6301983;28;20051;-79
2022/08/20 07:02:10;;;;;;;3.75;1.42;;;26.40;78.20;;;;;;6306649;28;20054;-79
2022/08/20 07:05:12;;;;;;;2.20;1.23;;;27.00;76.90;;;;;;6303086;28;20044;-81
2022/08/20 07:08:17;;;;;;;1.77;1.10;;;27.70;72.80;;;;;;6301232;28;20058;-77
2022/08/20 07:11:19;;;;;;;1.80;1.27;;;27.60;72.30;;;;;;6296648;28;20129;-77
2022/08/20 07:14:21;;;;;;;3.47;1.48;;;27.30;72.60;;;;;;6296514;28;20052;-77
2022/08/20 07:17:24;;;;;;;3.22;1.05;;;26.80;74.10;;;;;;6297338;28;20063;-77
2022/08/20 07:20:27;;;;;;;3.45;1.77;;;26.50;75.10;;;;;;6296625;28;20045;-78
2022/08/20 07:23:30;;;;;;;3.17;1.27;;;26.30;75.70;;;;;;6295329;28;20422;-79
2022/08/20 07:26:33;;;;;;;1.90;1.10;;;26.10;76.60;;;;;;6294756;28;20052;-77
2022/08/20 07:32:51;;;;;;;3.63;1.13;;;26.10;76.60;;;;;;6295888;28;20076;-78
2022/08/20 07:35:53;;;;;;;1.27;0.95;;;25.90;76.80;;;;;;6295832;28;20044;-77
2022/08/20 07:38:55;;;;;;;1.75;1.17;;;25.90;77.20;;;;;;6295863;28;20419;-78
2022/08/20 07:42:02;;;;;;;1.10;0.85;;;25.80;77.80;;;;;;6296236;28;20051;-76
2022/08/20 07:45:05;;;;;;;9.38;2.53;;;25.70;77.90;;;;;;6295493;28;20048;-76
2022/08/20 07:48:10;;;;;;;3.78;1.83;;;25.60;78.30;;;;;;6295733;28;20054;-77
2022/08/20 07:51:15;;;;;;;2.95;1.00;;;25.50;78.70;;;;;;6295603;28;20529;-77
2022/08/20 07:54:17;;;;;;;9.00;1.60;;;25.30;79.60;;;;;;6295989;28;20527;-77
2022/08/20 07:57:19;;;;;;;8.35;1.70;;;25.10;83.50;;;;;;6295417;28;20119;-78
2022/08/20 08:00:22;;;;;;;3.08;1.60;;;24.70;87.00;;;;;;6296231;28;20075;-76
2022/08/20 08:03:26;;;;;;;2.55;1.33;;;24.20;90.30;;;;;;6294873;28;20052;-76
2022/08/20 08:06:29;;;;;;;3.10;1.48;;;24.00;91.90;;;;;;6295248;28;20044;-76
2022/08/20 08:09:33;;;;;;;2.90;1.67;;;23.80;92.70;;;;;;6295343;28;20048;-75
2022/08/20 08:12:38;;;;;;;2.55;1.52;;;23.70;93.10;;;;;;6296098;28;20049;-77
2022/08/20 08:15:46;;;;;;;2.85;1.48;;;23.60;93.80;;;;;;6294952;28;20044;-76
2022/08/20 08:18:55;;;;;;;4.57;1.63;;;23.50;94.30;;;;;;6295189;28;20040;-77
2022/08/20 08:21:57;;;;;;;2.78;1.95;;;23.40;94.70;;;;;;6296467;28;20078;-76
2022/08/20 08:25:01;;;;;;;4.28;1.77;;;23.30;95.00;;;;;;6295782;28;20052;-77
2022/08/20 08:28:04;;;;;;;2.58;1.60;;;23.20;95.50;;;;;;6295709;28;20131;-76
2022/08/20 08:31:06;;;;;;;3.17;1.60;;;23.20;95.80;;;;;;6296099;28;20123;-76
2022/08/20 08:34:09;;;;;;;2.75;1.40;;;23.30;95.90;;;;;;6295483;28;20052;-76
2022/08/20 08:37:10;;;;;;;2.55;1.73;;;23.50;95.80;;;;;;6294631;28;20056;-78
2022/08/20 08:40:12;;;;;;;1.95;1.30;;;23.60;95.80;;;;;;6295615;28;20139;-77
2022/08/20 08:43:14;;;;;;;1.98;1.40;;;23.90;95.50;;;;;;6294842;28;20519;-77
2022/08/20 08:46:21;;;;;;;4.10;1.25;;;24.10;94.90;;;;;;6294941;28;20439;-76
2022/08/20 08:49:27;;;;;;;2.00;1.15;;;24.40;94.90;;;;;;6299023;28;20068;-76
2022/08/20 08:52:31;;;;;;;2.28;1.20;;;24.80;94.30;;;;;;6300446;28;20051;-76
2022/08/20 08:55:33;;;;;;;3.35;1.58;;;25.00;93.40;;;;;;6299636;28;20044;-79
2022/08/20 08:58:35;;;;;;;1.50;1.08;;;25.00;92.20;;;;;;6298943;28;20048;-76
2022/08/20 09:01:44;;;;;;;1.38;0.95;;;24.90;92.40;;;;;;6299359;28;20045;-77
2022/08/20 09:04:50;;;;;;;1.13;0.77;;;25.00;92.10;;;;;;6298135;28;20056;-78
2022/08/20 09:07:53;;;;;;;1.60;0.85;;;25.00;91.60;;;;;;6298731;28;20063;-77
2022/08/20 09:10:55;;;;;;;1.55;0.85;;;25.00;91.50;;;;;;6299198;28;20080;-77
2022/08/20 09:13:57;;;;;;;1.38;0.70;;;25.00;91.30;;;;;;6299686;28;20047;-76
2022/08/20 09:16:59;;;;;;;1.63;0.90;;;25.10;90.60;;;;;;6298799;28;20419;-76
2022/08/20 09:20:02;;;;;;;1.50;0.80;;;25.20;90.00;;;;;;6299159;28;20053;-77
2022/08/20 09:23:05;;;;;;;3.35;0.60;;;25.30;90.00;;;;;;6298188;28;20040;-79
2022/08/20 09:26:07;;;;;;;1.65;0.85;;;25.40;89.50;;;;;;6298501;28;20059;-77
2022/08/20 09:29:09;;;;;;;1.23;0.60;;;25.70;89.70;;;;;;6273467;28;20045;-77
2022/08/20 09:32:13;;;;;;;0.40;0.40;;;26.20;87.90;;;;;;6274068;28;20400;-77
2022/08/20 09:35:17;;;;;;;0.60;0.38;;;26.70;84.80;;;;;;6273850;28;20056;-78
2022/08/20 09:38:19;;;;;;;1.50;0.40;;;27.00;81.80;;;;;;6274774;28;20067;-77
2022/08/20 09:41:21;;;;;;;1.45;0.80;;;27.20;80.60;;;;;;6279026;28;20044;-78
2022/08/20 09:44:22;;;;;;;1.10;0.40;;;27.40;78.70;;;;;;6299829;28;20055;-77
2022/08/20 09:47:25;;;;;;;0.98;0.60;;;27.60;78.60;;;;;;6298164;28;20523;-76
2022/08/20 09:50:30;;;;;;;1.00;0.50;;;27.70;76.90;;;;;;6298950;28;20054;-78
2022/08/20 09:53:32;;;;;;;1.73;0.50;;;28.20;75.80;;;;;;6299701;28;20051;-77
2022/08/20 09:56:35;;;;;;;0.68;0.40;;;29.70;72.30;;;;;;6300545;28;20048;-77
2022/08/20 09:59:37;;;;;;;1.75;0.38;;;31.10;69.30;;;;;;6298699;28;20048;-78
2022/08/20 10:02:40;;;;;;;2.83;0.73;;;31.90;65.00;;;;;;6298640;28;20048;-77
2022/08/20 10:05:43;;;;;;;2.42;0.45;;;32.30;62.00;;;;;;6297910;28;20048;-77
2022/08/20 10:08:44;;;;;;;0.70;0.30;;;32.10;60.80;;;;;;6296053;28;20056;-77
2022/08/20 10:11:46;;;;;;;0.60;0.32;;;31.90;60.20;;;;;;6298312;28;20150;-77
2022/08/20 10:14:48;;;;;;;0.43;0.30;;;32.00;60.20;;;;;;6298676;28;20078;-79
2022/08/20 10:17:50;;;;;;;1.98;0.35;;;32.40;58.70;;;;;;6298724;28;20523;-79
2022/08/20 10:20:53;;;;;;;0.47;0.40;;;32.80;57.40;;;;;;6300208;28;20052;-78
2022/08/20 10:23:54;;;;;;;0.60;0.60;;;33.10;56.50;;;;;;6298162;28;20045;-78
2022/08/20 10:26:57;;;;;;;0.70;0.50;;;33.40;54.90;;;;;;6298376;28;20111;-77
2022/08/20 10:29:59;;;;;;;1.30;0.40;;;33.50;54.30;;;;;;6298203;28;20046;-77
2022/08/20 10:33:01;;;;;;;0.43;0.32;;;33.50;54.60;;;;;;6299108;28;20050;-78
2022/08/20 10:36:08;;;;;;;2.55;0.60;;;33.90;53.40;;;;;;6300052;28;20058;-78
2022/08/20 10:39:10;;;;;;;0.60;0.30;;;33.70;52.40;;;;;;6298500;28;20047;-78
2022/08/20 10:42:12;;;;;;;0.70;0.38;;;33.00;53.00;;;;;;6298213;28;20072;-78
2022/08/20 10:45:15;;;;;;;0.93;0.40;;;32.30;53.70;;;;;;6297620;28;20063;-78
2022/08/20 10:48:17;;;;;;;1.17;0.65;;;31.70;55.80;;;;;;6297681;28;20052;-77
2022/08/20 10:51:20;;;;;;;2.60;1.35;;;30.90;56.80;;;;;;6296994;28;20044;-78
2022/08/20 10:54:22;;;;;;;1.85;0.50;;;30.30;58.40;;;;;;6297484;28;20045;-78
2022/08/20 10:57:25;;;;;;;0.63;0.28;;;30.00;58.90;;;;;;6296336;28;20420;-77
2022/08/20 11:00:27;;;;;;;1.52;0.45;;;29.70;58.40;;;;;;6297345;28;20048;-77
2022/08/20 11:03:29;;;;;;;3.05;0.30;;;29.40;58.80;;;;;;6297057;28;20045;-77
2022/08/20 11:06:32;;;;;;;1.10;0.38;;;29.20;61.70;;;;;;6296112;28;20049;-78
2022/08/20 11:09:33;;;;;;;0.75;0.45;;;28.90;61.50;;;;;;6296635;28;20041;-78
2022/08/20 11:12:36;;;;;;;0.45;0.28;;;28.60;63.20;;;;;;6296303;28;20495;-77
2022/08/20 11:15:41;;;;;;;1.25;0.52;;;28.50;64.30;;;;;;6297249;28;20044;-76
2022/08/20 11:18:42;;;;;;;3.60;0.65;;;28.60;64.40;;;;;;6295710;28;20135;-78
2022/08/20 11:21:45;;;;;;;0.35;0.30;;;28.70;64.40;;;;;;6298353;28;20044;-78
2022/08/20 11:24:47;;;;;;;2.03;0.40;;;29.10;62.90;;;;;;6297612;28;20045;-78
2022/08/20 11:27:50;;;;;;;2.88;0.50;;;29.40;62.10;;;;;;6295773;28;20519;-78
2022/08/20 11:30:52;;;;;;;3.38;0.50;;;29.90;61.50;;;;;;6296054;28;20137;-76
2022/08/20 11:33:54;;;;;;;0.35;0.20;;;30.50;59.20;;;;;;6298692;28;20049;-78
2022/08/20 11:36:58;;;;;;;2.65;0.20;;;30.90;55.90;;;;;;6297646;28;20048;-77
2022/08/20 11:40:00;;;;;;;0.75;0.30;;;31.30;55.20;;;;;;6298571;28;20040;-79
2022/08/20 11:43:02;;;;;;;0.20;0.10;;;31.70;53.40;;;;;;6295888;28;20076;-78
2022/08/20 11:46:03;;;;;;;0.93;0.43;;;32.00;51.70;;;;;;6295855;28;20037;-78
2022/08/20 11:49:05;;;;;;;0.80;0.20;;;32.20;50.40;;;;;;6295866;28;20090;-78
2022/08/20 11:52:08;;;;;;;0.65;0.10;;;32.30;49.70;;;;;;6296163;28;20411;-78
2022/08/20 11:55:13;;;;;;;0.25;0.10;;;32.20;50.00;;;;;;6292005;28;20036;-80
2022/08/20 11:58:15;;;;;;;2.40;0.47;;;32.40;49.50;;;;;;6297732;28;20508;-79
2022/08/20 12:01:17;;;;;;;0.22;0.10;;;32.30;49.10;;;;;;6298295;28;20484;-79
2022/08/20 12:04:18;;;;;;;0.68;0.20;;;32.30;48.60;;;;;;6301592;22;20044;-87
2022/08/20 12:07:25;;;;;;;0.15;0.15;;;32.30;48.70;;;;;;6270938;28;20053;-86
2022/08/20 12:10:27;;;;;;;0.10;0.10;;;32.30;48.80;;;;;;6273499;28;20049;-85
2022/08/20 12:13:32;;;;;;;0.50;0.20;;;32.60;49.10;;;;;;6281032;28;20059;-87
2022/08/20 12:16:34;;;;;;;2.17;1.17;;;33.00;48.30;;;;;;6276881;28;20049;-87
2022/08/20 12:19:37;;;;;;;1.63;1.10;;;33.40;47.70;;;;;;6276283;28;20056;-87
2022/08/20 12:22:41;;;;;;;1.10;0.20;;;33.30;47.20;;;;;;6282862;28;20125;-84
2022/08/20 12:29:00;;;;;;;1.23;0.10;;;33.50;45.20;;;;;;6286458;28;20427;-87
2022/08/20 12:32:03;;;;;;;0.10;0.10;;;33.30;45.20;;;;;;6291920;28;20049;-85
2022/08/20 12:35:07;;;;;;;0.50;0.20;;;33.40;44.90;;;;;;6288444;28;20041;-86
2022/08/20 12:38:10;;;;;;;1.48;0.43;;;33.50;44.60;;;;;;6290891;28;20045;-86
2022/08/20 12:41:12;;;;;;;0.70;0.20;;;33.70;44.20;;;;;;6301512;28;20094;-85
2022/08/20 12:44:13;;;;;;;0.57;0.30;;;33.90;44.30;;;;;;6319134;28;20076;-87
2022/08/20 12:47:17;;;;;;;0.10;0.00;;;34.20;43.80;;;;;;6309528;28;20115;-87
2022/08/20 12:50:21;;;;;;;0.38;0.10;;;34.40;42.90;;;;;;6312754;28;20106;-84
2022/08/20 12:53:24;;;;;;;0.38;0.10;;;34.40;42.80;;;;;;6293610;28;20036;-83
2022/08/20 12:56:26;;;;;;;0.10;0.10;;;34.50;42.50;;;;;;6290485;28;20045;-85
2022/08/20 12:59:28;;;;;;;0.63;0.20;;;34.50;42.20;;;;;;6293410;28;20052;-87
2022/08/20 13:02:30;;;;;;;0.10;0.10;;;34.60;42.10;;;;;;6284630;28;20048;-84
2022/08/20 13:05:33;;;;;;;0.00;0.00;;;34.80;41.90;;;;;;6285186;28;20044;-83
2022/08/20 13:08:36;;;;;;;1.20;0.00;;;34.90;40.90;;;;;;6290689;28;20427;-84
2022/08/20 13:11:38;;;;;;;2.72;0.20;;;35.10;39.80;;;;;;6291638;28;20048;-84
2022/08/20 13:14:40;;;;;;;3.72;0.68;;;35.00;39.30;;;;;;6279896;28;20049;-83
2022/08/20 13:17:42;;;;;;;0.43;0.00;;;34.70;39.90;;;;;;6307496;28;20055;-85
2022/08/20 13:20:44;;;;;;;0.10;0.00;;;34.80;40.10;;;;;;6315260;28;20044;-84
2022/08/20 13:23:47;;;;;;;0.22;0.17;;;35.00;39.60;;;;;;6311975;28;20561;-83
2022/08/20 13:26:50;;;;;;;2.20;0.20;;;35.10;39.50;;;;;;6294552;28;20053;-83
2022/08/20 13:29:54;;;;;;;3.20;0.20;;;35.10;39.10;;;;;;6281889;28;20396;-84
2022/08/20 13:32:55;;;;;;;10.13;0.47;;;35.10;39.40;;;;;;6281457;28;20045;-83
2022/08/20 13:35:57;;;;;;;5.05;0.57;;;35.10;38.70;;;;;;6282239;28;20053;-86
2022/08/20 13:39:01;;;;;;;0.45;0.20;;;35.10;38.60;;;;;;6281866;28;20150;-84
2022/08/20 13:42:02;;;;;;;0.30;0.10;;;35.30;36.70;;;;;;6283919;28;20100;-84
2022/08/20 13:45:05;;;;;;;1.05;0.30;;;35.30;37.00;;;;;;6281822;28;20147;-84
2022/08/20 13:48:08;;;;;;;3.03;0.20;;;35.40;36.50;;;;;;6280197;28;20048;-84
2022/08/20 13:51:10;;;;;;;1.40;0.20;;;35.60;35.80;;;;;;6295321;28;20055;-83
2022/08/20 13:54:13;;;;;;;2.28;0.43;;;35.60;34.50;;;;;;6306895;28;20041;-83
2022/08/20 13:57:17;;;;;;;1.92;0.47;;;35.30;34.50;;;;;;6289285;28;20072;-85
2022/08/20 14:00:21;;;;;;;0.55;0.20;;;35.10;34.70;;;;;;6296113;28;20059;-84
2022/08/20 14:03:23;;;;;;;0.73;0.30;;;35.00;35.60;;;;;;6313111;28;20064;-86
2022/08/20 14:06:25;;;;;;;1.08;0.30;;;35.00;35.80;;;;;;6315707;28;20052;-88
2022/08/20 14:09:31;;;;;;;3.42;1.00;;;35.10;34.70;;;;;;6299055;28;20051;-86
2022/08/20 14:12:32;;;;;;;0.85;0.28;;;34.80;35.20;;;;;;6299880;28;20648;-85
2022/08/20 14:15:35;;;;;;;0.77;0.20;;;34.40;35.70;;;;;;6299022;28;20044;-85
2022/08/20 14:18:36;;;;;;;0.70;0.50;;;34.20;35.60;;;;;;6299632;28;20045;-85
2022/08/20 14:21:38;;;;;;;1.00;0.40;;;34.00;36.10;;;;;;6299587;28;20544;-85
2022/08/20 14:24:41;;;;;;;0.68;0.25;;;34.10;36.10;;;;;;6299231;28;20048;-86
2022/08/20 14:27:43;;;;;;;1.70;0.52;;;34.20;35.30;;;;;;6289757;28;20519;-85
2022/08/20 14:30:46;;;;;;;1.45;0.45;;;34.30;34.70;;;;;;6299112;28;20051;-85
2022/08/20 14:33:47;;;;;;;3.72;0.55;;;34.00;34.60;;;;;;6299724;28;20051;-84
2022/08/20 14:36:49;;;;;;;1.38;0.50;;;34.00;34.90;;;;;;6299616;28;20051;-84
2022/08/20 14:39:55;;;;;;;2.28;0.50;;;34.00;34.50;;;;;;6280834;28;20063;-87
2022/08/20 14:42:57;;;;;;;4.43;0.40;;;34.00;34.40;;;;;;6298420;28;20049;-85
2022/08/20 14:45:59;;;;;;;1.92;0.50;;;34.10;33.70;;;;;;6297716;28;20098;-86
2022/08/20 14:49:01;;;;;;;1.50;0.40;;;33.90;33.10;;;;;;6298448;28;20480;-87
2022/08/20 14:52:03;;;;;;;2.72;0.82;;;33.60;33.40;;;;;;6298695;28;20062;-90
2022/08/20 14:55:08;;;;;;;0.68;0.40;;;33.40;33.50;;;;;;6297256;28;20070;-86
2022/08/20 14:58:11;;;;;;;0.88;0.35;;;33.40;33.80;;;;;;6297391;28;20048;-86
2022/08/20 15:01:13;;;;;;;0.85;0.40;;;33.50;33.50;;;;;;6298599;28;20129;-86
2022/08/20 15:04:15;;;;;;;3.40;0.90;;;33.60;33.40;;;;;;6301100;28;20098;-78
2022/08/20 15:07:24;;;;;;;1.27;0.55;;;33.60;33.10;;;;;;6302536;28;20049;-81
2022/08/20 15:10:30;;;;;;;0.90;0.38;;;33.60;32.40;;;;;;6282560;28;20037;-85
2022/08/20 15:13:32;;;;;;;2.53;0.43;;;33.60;32.80;;;;;;6293131;28;20036;-86
2022/08/20 15:16:34;;;;;;;1.38;0.60;;;33.60;32.60;;;;;;6298028;28;20052;-84
2022/08/20 15:19:36;;;;;;;1.08;0.50;;;33.60;33.10;;;;;;6297302;28;20060;-85
2022/08/20 15:22:39;;;;;;;2.08;0.50;;;33.70;33.10;;;;;;6296918;28;20496;-86
2022/08/20 15:25:42;;;;;;;1.92;0.70;;;33.60;31.80;;;;;;6289684;28;20048;-84
2022/08/20 15:28:46;;;;;;;2.45;0.60;;;33.50;32.50;;;;;;6281701;28;20052;-84
2022/08/20 15:31:47;;;;;;;3.53;1.25;;;33.40;32.30;;;;;;6269143;28;20423;-83
2022/08/20 15:34:49;;;;;;;1.38;0.63;;;33.30;32.30;;;;;;6272834;28;20067;-87
2022/08/20 15:37:51;;;;;;;2.50;0.70;;;33.20;32.80;;;;;;6272917;28;20041;-84
2022/08/20 15:40:54;;;;;;;2.42;0.70;;;33.20;32.90;;;;;;6273077;28;20045;-84
2022/08/20 15:43:56;;;;;;;3.13;0.40;;;33.10;32.80;;;;;;6271715;28;20041;-84
2022/08/20 15:47:14;;;;;;;2.30;0.50;;;33.00;33.10;;;;;;6271190;28;20515;-84
2022/08/20 15:50:25;;;;;;;3.75;0.70;;;32.90;32.80;;;;;;6293501;28;20124;-85
2022/08/20 15:53:31;;;;;;;7.00;0.57;;;32.70;33.00;;;;;;6296680;28;20044;-84
2022/08/20 15:56:58;;;;;;;1.57;0.50;;;32.50;33.60;;;;;;6288104;28;20411;-83
2022/08/20 16:00:10;;;;;;;1.23;0.55;;;32.30;33.40;;;;;;6296847;28;20048;-83